Time;durP1;ratioP1;P1;durP2;ratioP2;P2;SDS_P1;SDS_P2;PMS_P1;PMS_P2;Temp;Humidity;BMP_temperature;BMP_pressure;BME280_temperature;BME280_humidity;BME280_pressure;Samples;Min_cycle;Max_cycle;Signal;HPM_P1;HPM_P2
2020/12/10 08:12:32;;;;;;;30.55;17.80;;;3.20;99.90;;;;;;5851634;24;20183;-84
2020/12/10 08:15:02;;;;;;;32.28;20.02;;;2.30;99.90;;;;;;6019189;23;20559;-84
2020/12/10 08:17:31;;;;;;;37.08;19.65;;;3.20;99.90;;;;;;6109355;23;20205;-84
2020/12/10 08:19:59;;;;;;;29.73;19.83;;;3.30;99.90;;;;;;6109806;23;20183;-84
2020/12/10 08:22:26;;;;;;;29.48;16.52;;;3.40;99.90;;;;;;6110225;23;20185;-84
2020/12/10 08:24:54;;;;;;;28.15;18.33;;;3.30;99.90;;;;;;6109508;23;20504;-84
2020/12/10 08:27:24;;;;;;;27.45;17.08;;;3.40;99.90;;;;;;6110418;23;20232;-84
2020/12/10 08:30:01;;;;;;;37.17;17.42;;;3.50;99.90;;;;;;6110470;23;20174;-84
2020/12/10 08:32:27;;;;;;;38.60;22.73;;;3.40;99.90;;;;;;6109736;23;20182;-84
2020/12/10 08:35:02;;;;;;;37.42;19.80;;;3.60;99.90;;;;;;6110002;23;20181;-84
2020/12/10 08:37:41;;;;;;;31.83;19.42;;;3.60;99.90;;;;;;6110255;23;20205;-84
2020/12/10 08:40:58;;;;;;;32.25;18.55;;;2.90;99.90;;;;;;6110625;23;20176;-85
2020/12/10 08:50:25;;;;;;;34.50;19.65;;;4.50;99.90;;;;;;6073521;23;20257;-84
2020/12/10 08:53:45;;;;;;;;;;;;;;;;;;;;;
2020/12/10 08:56:18;;;;;;;24.42;16.30;;;3.30;99.90;;;;;;6109770;23;20208;-84
2020/12/10 08:58:51;;;;;;;17.15;12.27;;;3.60;99.90;;;;;;6111855;23;20229;-85
2020/12/10 09:01:28;;;;;;;17.83;10.45;;;3.70;99.90;;;;;;6110793;23;20477;-85
2020/12/10 09:04:02;;;;;;;20.63;12.25;;;3.70;99.90;;;;;;6112223;23;20222;-85
2020/12/10 09:06:48;;;;;;;19.02;12.00;;;3.70;99.90;;;;;;6111199;23;20225;-86
2020/12/10 09:10:06;;;;;;;;;;;;;;;;;;;;;
2020/12/10 09:13:23;;;;;;;;;;;;;;;;;;;;;
2020/12/10 09:29:14;;;;;;;10.75;8.60;;;4.00;99.90;;;;;;5887698;23;20206;-85
2020/12/10 09:31:41;;;;;;;12.18;7.93;;;4.10;99.90;;;;;;6058498;23;20213;-84
2020/12/10 09:34:07;;;;;;;11.50;6.95;;;4.10;99.90;;;;;;6114433;23;20216;-85
2020/12/10 09:36:44;;;;;;;10.38;8.35;;;4.00;99.90;;;;;;6114911;23;20198;-85
2020/12/10 09:39:26;;;;;;;;;;;;;;;;;;;;;
2020/12/10 09:42:20;;;;;;;11.77;8.20;;;4.20;99.90;;;;;;6106949;23;20192;-84
2020/12/10 09:45:15;;;;;;;;;;;;;;;;;;;;;
2020/12/10 09:48:23;;;;;;;;;;;;;;;;;;;;;
2020/12/10 09:51:35;;;;;;;;;;;;;;;;;;;;;
2020/12/10 09:54:35;;;;;;;12.50;7.57;;;4.50;99.90;;;;;;6017214;23;20200;-85
2020/12/10 09:57:30;;;;;;;;;;;;;;;;;;;;;
2020/12/10 10:00:17;;;;;;;9.90;7.53;;;4.50;99.90;;;;;;6116044;23;20166;-85
2020/12/10 10:03:05;;;;;;;;;;;;;;;;;;;;;
2020/12/10 10:05:56;;;;;;;8.73;7.18;;;4.70;99.90;;;;;;6112494;23;20187;-85
2020/12/10 10:08:39;;;;;;;14.93;9.93;;;4.60;99.90;;;;;;6115465;23;20182;-85
2020/12/10 10:11:32;;;;;;;14.73;9.75;;;4.60;99.90;;;;;;6115908;23;20199;-85
2020/12/10 10:14:19;;;;;;;11.48;10.27;;;4.60;99.90;;;;;;6037037;23;20201;-85
2020/12/10 10:19:52;;;;;;;16.20;10.23;;;4.60;99.90;;;;;;6116469;23;20384;-85
2020/12/10 10:25:31;;;;;;;15.77;10.55;;;4.70;99.90;;;;;;6115151;23;20184;-85
2020/12/10 10:31:05;;;;;;;19.67;13.57;;;4.50;99.90;;;;;;6111071;23;20253;-85
2020/12/10 10:33:46;;;;;;;19.52;15.40;;;4.50;99.90;;;;;;6116065;23;20196;-85
2020/12/10 10:36:44;;;;;;;21.83;14.65;;;4.60;99.90;;;;;;6116071;23;20530;-85
2020/12/10 10:42:48;;;;;;;;;;;;;;;;;;;;;
2020/12/10 10:48:21;;;;;;;16.70;12.80;;;4.40;99.90;;;;;;6052774;23;20362;-85
2020/12/10 10:51:14;;;;;;;18.52;13.07;;;4.50;99.90;;;;;;6116765;23;20167;-85
2020/12/10 10:54:25;;;;;;;19.02;12.45;;;4.50;99.90;;;;;;6115842;23;20177;-85
2020/12/10 10:57:15;;;;;;;21.80;14.45;;;4.50;99.90;;;;;;5898540;24;20222;-85
2020/12/10 11:00:18;;;;;;;21.23;14.30;;;4.40;99.90;;;;;;6116661;23;20201;-85
2020/12/10 11:03:04;;;;;;;23.65;15.93;;;4.50;99.90;;;;;;6063139;23;20197;-85
2020/12/10 11:08:42;;;;;;;19.38;12.48;;;4.50;99.90;;;;;;6077299;23;20269;-85
2020/12/10 11:11:44;;;;;;;;;;;;;;;;;;;;;
2020/12/10 11:14:39;;;;;;;20.20;13.45;;;4.40;99.90;;;;;;6108782;23;20186;-85
2020/12/10 11:17:26;;;;;;;17.30;12.85;;;4.30;99.90;;;;;;6116815;23;20207;-85
2020/12/10 11:20:01;;;;;;;22.38;13.45;;;4.50;99.90;;;;;;6117120;23;20177;-85
2020/12/10 11:22:42;;;;;;;25.05;14.32;;;4.50;99.90;;;;;;6116551;23;20180;-85
2020/12/10 11:25:29;;;;;;;22.13;15.10;;;4.50;99.90;;;;;;6117140;23;20183;-85
2020/12/10 11:28:14;;;;;;;20.13;15.15;;;;;;;;;;6115344;23;20275;-86
2020/12/10 11:30:47;;;;;;;18.83;14.70;;;4.60;99.90;;;;;;6117138;23;20244;-83
2020/12/10 11:33:21;;;;;;;24.35;17.45;;;4.60;99.90;;;;;;6122023;23;20171;-84
2020/12/10 11:36:08;;;;;;;23.83;14.25;;;4.70;99.90;;;;;;6120784;23;20204;-84
2020/12/10 11:38:47;;;;;;;23.88;15.93;;;4.70;99.90;;;;;;6116315;23;20196;-84
2020/12/10 11:41:19;;;;;;;18.75;13.73;;;4.80;99.90;;;;;;6115155;23;20269;-84
2020/12/10 13:57:48;;;;;;;15.05;11.50;;;6.10;99.90;;;;;;6114283;23;20190;-84
2020/12/10 14:07:49;;;;;;;20.02;13.43;;;5.10;99.90;;;;;;5957907;24;20251;-87
2020/12/10 14:11:10;;;;;;;;;;;;;;;;;;;;;
2020/12/10 15:11:25;;;;;;;21.55;14.38;;;4.30;99.90;;;;;;6079821;23;20191;-84
2020/12/10 15:33:52;;;;;;;;;;;;;;;;;;;;;
2020/12/10 15:36:28;;;;;;;21.95;13.35;;;4.20;99.90;;;;;;5942696;24;20210;-82
